Time;durP1;ratioP1;P1;durP2;ratioP2;P2;SDS_P1;SDS_P2;PMS_P1;PMS_P2;Temp;Humidity;BMP_temperature;BMP_pressure;BME280_temperature;BME280_humidity;BME280_pressure;Samples;Min_cycle;Max_cycle;Signal;HPM_P1;HPM_P2
2023/06/01 00:01:33;;;;;;;16.25;6.43;;;11.80;99.90;;;;;;4997232;28;20037;-75
2023/06/01 00:04:01;;;;;;;14.68;6.45;;;11.90;99.90;;;;;;5015032;28;20045;-75
2023/06/01 00:06:28;;;;;;;15.27;6.28;;;11.90;99.90;;;;;;5013893;28;20113;-75
2023/06/01 00:08:57;;;;;;;17.10;6.82;;;11.90;99.90;;;;;;5014039;28;20049;-75
2023/06/01 00:11:23;;;;;;;16.58;6.95;;;11.80;99.90;;;;;;4997695;28;20128;-75
2023/06/01 00:13:50;;;;;;;14.90;6.28;;;11.90;99.90;;;;;;5015175;28;20048;-75
2023/06/01 00:16:16;;;;;;;16.15;6.50;;;11.80;99.90;;;;;;5013885;28;20091;-75
2023/06/01 00:18:42;;;;;;;14.70;6.72;;;11.90;99.90;;;;;;4997694;28;20041;-75
2023/06/01 00:21:08;;;;;;;15.07;6.85;;;11.90;99.90;;;;;;5014769;28;20089;-74
2023/06/01 00:23:34;;;;;;;16.42;7.43;;;11.90;99.90;;;;;;4997068;28;20046;-75
2023/06/01 00:26:00;;;;;;;15.13;6.70;;;11.90;99.90;;;;;;5014932;28;20073;-75
2023/06/01 00:28:26;;;;;;;14.50;6.90;;;11.80;99.90;;;;;;5013700;28;20048;-75
2023/06/01 00:30:53;;;;;;;14.57;7.03;;;11.80;99.90;;;;;;5013619;28;20030;-75
2023/06/01 00:33:22;;;;;;;16.63;6.78;;;11.80;99.90;;;;;;4981135;28;20049;-75
2023/06/01 00:35:47;;;;;;;13.10;6.13;;;11.80;99.90;;;;;;5014537;28;20034;-75
2023/06/01 00:38:13;;;;;;;13.02;6.40;;;11.80;99.90;;;;;;4996970;28;20046;-75
2023/06/01 00:40:39;;;;;;;18.92;7.22;;;11.80;99.90;;;;;;4996797;28;20042;-75
2023/06/01 00:43:05;;;;;;;16.63;6.72;;;11.80;99.90;;;;;;5012935;28;20042;-75
2023/06/01 00:45:31;;;;;;;18.08;6.68;;;11.80;99.90;;;;;;5013110;28;20042;-74
2023/06/01 00:47:57;;;;;;;18.40;6.72;;;11.80;99.90;;;;;;4996817;28;20510;-75
2023/06/01 00:50:23;;;;;;;15.68;6.55;;;11.80;99.90;;;;;;5012954;28;20085;-75
2023/06/01 00:52:51;;;;;;;15.18;7.05;;;11.80;99.90;;;;;;4996424;28;20034;-74
2023/06/01 00:55:18;;;;;;;18.73;6.55;;;11.70;99.90;;;;;;5012976;28;20096;-74
2023/06/01 00:57:44;;;;;;;15.23;6.97;;;11.70;99.90;;;;;;5012936;28;20045;-74
2023/06/01 01:00:11;;;;;;;17.17;6.75;;;11.80;99.90;;;;;;5013025;28;20041;-75
2023/06/01 01:02:41;;;;;;;15.73;6.55;;;11.80;99.90;;;;;;5014378;28;20057;-75
2023/06/01 01:05:12;;;;;;;16.63;7.18;;;11.80;99.90;;;;;;4996353;28;20061;-74
2023/06/01 01:07:43;;;;;;;17.50;6.60;;;11.70;99.90;;;;;;4996276;28;20042;-75
2023/06/01 01:10:24;;;;;;;15.13;7.00;;;11.70;99.90;;;;;;5012683;28;20038;-75
2023/06/01 01:13:37;;;;;;;13.75;7.13;;;11.70;99.90;;;;;;5012591;28;20045;-74
2023/06/01 01:16:13;;;;;;;13.85;6.70;;;11.70;99.90;;;;;;4970192;28;20507;-74
2023/06/01 01:18:57;;;;;;;14.35;6.82;;;11.70;99.90;;;;;;4996469;28;20103;-74
2023/06/01 01:21:33;;;;;;;15.70;6.72;;;11.70;99.90;;;;;;5013451;28;20058;-74
2023/06/01 01:24:11;;;;;;;15.00;7.00;;;11.70;99.90;;;;;;5012987;28;20085;-75
2023/06/01 01:26:55;;;;;;;18.98;7.00;;;11.70;99.90;;;;;;5012619;28;20045;-75
2023/06/01 01:29:24;;;;;;;18.25;7.50;;;11.70;99.90;;;;;;5012364;28;20112;-76
2023/06/01 01:31:50;;;;;;;16.38;7.30;;;11.60;99.90;;;;;;5013631;28;20077;-75
2023/06/01 01:34:19;;;;;;;14.18;6.60;;;11.60;99.90;;;;;;4995928;28;20045;-75
2023/06/01 01:36:46;;;;;;;16.05;7.47;;;11.60;99.90;;;;;;5012462;28;20042;-75
2023/06/01 01:39:11;;;;;;;16.83;7.18;;;11.60;99.90;;;;;;5013492;28;20038;-75
2023/06/01 01:41:37;;;;;;;17.33;6.90;;;11.60;99.90;;;;;;5012464;28;20124;-75
2023/06/01 01:44:04;;;;;;;16.35;7.25;;;11.60;99.90;;;;;;4995789;28;20041;-75
2023/06/01 01:46:56;;;;;;;17.67;7.80;;;11.60;99.90;;;;;;5012397;28;20440;-75
2023/06/01 01:49:40;;;;;;;16.50;7.43;;;11.60;99.90;;;;;;5013344;28;20099;-75
2023/06/01 01:52:18;;;;;;;17.80;7.15;;;11.60;99.90;;;;;;5011988;28;20038;-75
2023/06/01 01:54:46;;;;;;;16.83;7.43;;;11.50;99.90;;;;;;5012455;28;20136;-75
2023/06/01 01:57:16;;;;;;;15.68;7.15;;;11.60;99.90;;;;;;5011975;28;20103;-75
2023/06/01 01:59:43;;;;;;;18.38;7.10;;;11.50;99.90;;;;;;5012039;28;20046;-75
2023/06/01 02:02:10;;;;;;;16.63;7.18;;;11.50;99.90;;;;;;5011918;28;20050;-76
2023/06/01 02:04:43;;;;;;;18.65;7.72;;;11.50;99.90;;;;;;4979354;28;20068;-75
2023/06/01 02:07:10;;;;;;;16.55;7.68;;;11.50;99.90;;;;;;5011946;28;20124;-75
2023/06/01 02:09:36;;;;;;;16.42;7.70;;;11.60;99.90;;;;;;5012178;28;20096;-75
2023/06/01 02:12:02;;;;;;;17.65;7.32;;;11.50;99.90;;;;;;5012925;28;20044;-75
2023/06/01 02:14:28;;;;;;;15.93;6.97;;;11.60;99.90;;;;;;4995569;28;20406;-75
2023/06/01 02:16:55;;;;;;;16.40;6.80;;;11.50;99.90;;;;;;4995474;28;20049;-76
2023/06/01 02:19:21;;;;;;;15.70;6.65;;;11.50;99.90;;;;;;5012029;28;20045;-75
2023/06/01 02:21:47;;;;;;;15.63;6.82;;;11.50;99.90;;;;;;5012851;28;20069;-75
2023/06/01 02:24:13;;;;;;;17.80;7.13;;;11.40;99.90;;;;;;4996157;28;20050;-76
2023/06/01 02:26:40;;;;;;;15.15;7.13;;;11.40;99.90;;;;;;5016822;28;20041;-75
2023/06/01 02:29:05;;;;;;;17.00;7.05;;;11.40;99.90;;;;;;5016067;28;20112;-75
2023/06/01 02:31:32;;;;;;;16.65;7.78;;;11.40;99.90;;;;;;4999567;28;20122;-75
2023/06/01 02:33:59;;;;;;;18.48;7.78;;;11.40;99.90;;;;;;5015805;28;20053;-76
2023/06/01 02:36:26;;;;;;;19.27;6.97;;;11.40;99.90;;;;;;5016735;28;20045;-75
2023/06/01 02:38:52;;;;;;;13.70;7.18;;;11.40;99.90;;;;;;5015582;28;20048;-75
2023/06/01 02:41:18;;;;;;;14.38;7.15;;;11.50;99.90;;;;;;5015296;28;20038;-75
2023/06/01 02:43:43;;;;;;;15.48;7.05;;;11.50;99.90;;;;;;4998884;28;20129;-75
2023/06/01 02:46:09;;;;;;;15.40;7.28;;;11.50;99.90;;;;;;5015594;28;20061;-75
2023/06/01 02:48:35;;;;;;;17.92;7.10;;;11.50;99.90;;;;;;4982863;28;20116;-76
2023/06/01 02:51:01;;;;;;;17.73;6.72;;;11.40;99.90;;;;;;4998928;28;20125;-76
2023/06/01 02:53:29;;;;;;;15.10;6.50;;;11.40;99.90;;;;;;4998806;28;20048;-76
2023/06/01 02:55:55;;;;;;;14.18;6.00;;;11.40;99.90;;;;;;4999441;28;20041;-76
2023/06/01 02:58:21;;;;;;;16.63;6.15;;;11.40;99.90;;;;;;5015138;28;20049;-76
2023/06/01 03:00:47;;;;;;;15.13;5.95;;;11.40;99.90;;;;;;5015417;28;20046;-76
2023/06/01 03:03:13;;;;;;;16.77;6.80;;;11.40;99.90;;;;;;5016432;28;20042;-77
2023/06/01 03:05:39;;;;;;;15.10;6.35;;;11.40;99.90;;;;;;5014893;28;20538;-76
2023/06/01 03:08:08;;;;;;;14.27;6.55;;;11.30;99.90;;;;;;4998898;28;20038;-76
2023/06/01 03:10:34;;;;;;;15.70;6.55;;;11.30;99.90;;;;;;5014880;28;20125;-76
2023/06/01 03:13:00;;;;;;;19.50;6.85;;;11.30;99.90;;;;;;5014784;28;20034;-75
2023/06/01 03:15:29;;;;;;;17.90;7.20;;;11.20;99.90;;;;;;4998524;28;20053;-76
2023/06/01 03:17:55;;;;;;;15.05;6.78;;;11.20;99.90;;;;;;5015100;28;20104;-76
2023/06/01 03:20:21;;;;;;;16.42;6.80;;;11.30;99.90;;;;;;4998530;28;20053;-77
2023/06/01 03:22:47;;;;;;;15.40;6.57;;;11.30;99.90;;;;;;5014623;28;20125;-76
2023/06/01 03:25:13;;;;;;;14.20;6.18;;;11.30;99.90;;;;;;4982135;28;20545;-77
2023/06/01 03:27:39;;;;;;;15.13;6.53;;;11.30;99.90;;;;;;5015800;28;20121;-76
2023/06/01 03:30:12;;;;;;;12.90;6.00;;;11.30;99.90;;;;;;4998354;28;20041;-75
2023/06/01 03:32:39;;;;;;;12.98;5.90;;;11.30;99.90;;;;;;4998377;28;20045;-75
2023/06/01 03:35:07;;;;;;;10.90;5.30;;;11.30;99.90;;;;;;4998184;28;20073;-75
2023/06/01 03:37:34;;;;;;;12.32;5.68;;;11.30;99.90;;;;;;4997279;28;20050;-75
2023/06/01 03:40:01;;;;;;;15.48;5.70;;;11.30;99.90;;;;;;4997975;28;20124;-75
2023/06/01 03:42:26;;;;;;;12.80;5.35;;;11.30;99.90;;;;;;5014471;28;20038;-76
2023/06/01 03:44:52;;;;;;;14.30;5.70;;;11.30;99.90;;;;;;4981624;28;20060;-76
2023/06/01 03:47:18;;;;;;;12.40;5.50;;;11.30;99.90;;;;;;5014229;28;20085;-76
2023/06/01 03:49:44;;;;;;;12.45;5.22;;;11.30;99.90;;;;;;4998009;28;20042;-76
2023/06/01 03:52:10;;;;;;;13.23;5.38;;;11.20;99.90;;;;;;5014017;28;20246;-76
2023/06/01 03:54:35;;;;;;;14.15;5.60;;;11.30;99.90;;;;;;4997865;28;20073;-75
2023/06/01 03:57:01;;;;;;;11.98;5.00;;;11.30;99.90;;;;;;5015170;28;20096;-75
2023/06/01 03:59:27;;;;;;;13.45;5.53;;;11.40;99.90;;;;;;5014055;28;20042;-75
2023/06/01 04:01:53;;;;;;;12.43;5.40;;;11.40;99.90;;;;;;4997964;28;20060;-75
2023/06/01 04:04:24;;;;;;;13.48;5.65;;;11.40;99.90;;;;;;4997559;28;20042;-75
2023/06/01 04:06:51;;;;;;;11.48;5.30;;;11.50;99.90;;;;;;5015137;28;20044;-75
2023/06/01 04:09:18;;;;;;;11.77;5.32;;;11.50;99.90;;;;;;5015239;28;20068;-76
2023/06/01 04:11:44;;;;;;;15.95;5.60;;;11.50;99.90;;;;;;5015315;28;20069;-75
2023/06/01 04:14:10;;;;;;;12.85;5.47;;;11.50;99.90;;;;;;4997516;28;20108;-75
2023/06/01 04:16:35;;;;;;;14.07;5.75;;;11.50;99.90;;;;;;5013832;28;20050;-75
2023/06/01 04:19:01;;;;;;;12.52;6.07;;;11.50;99.90;;;;;;4997391;28;20184;-76
2023/06/01 04:21:30;;;;;;;12.77;5.82;;;11.40;99.90;;;;;;5013453;28;20121;-75
2023/06/01 04:23:55;;;;;;;14.98;6.18;;;11.40;99.90;;;;;;4997393;28;20406;-76
2023/06/01 04:26:21;;;;;;;17.13;6.40;;;11.40;99.90;;;;;;4980939;28;20099;-76
2023/06/01 04:28:48;;;;;;;12.57;5.43;;;11.40;99.90;;;;;;4997442;28;20049;-76
2023/06/01 04:31:16;;;;;;;14.63;5.70;;;11.40;99.90;;;;;;5013651;28;20512;-76
2023/06/01 04:33:52;;;;;;;12.48;5.22;;;11.40;99.90;;;;;;5013571;28;20406;-76
2023/06/01 04:36:22;;;;;;;11.45;5.10;;;11.30;99.90;;;;;;4997840;28;20050;-76
2023/06/01 04:38:52;;;;;;;10.82;4.78;;;11.40;99.90;;;;;;5013195;28;20068;-75
2023/06/01 04:41:22;;;;;;;13.00;4.95;;;11.40;99.90;;;;;;4997050;28;20045;-76
2023/06/01 04:43:51;;;;;;;12.48;5.00;;;11.30;99.90;;;;;;5012550;28;20081;-76
2023/06/01 04:46:23;;;;;;;13.40;4.95;;;11.30;99.90;;;;;;5013209;28;20542;-76
2023/06/01 04:48:58;;;;;;;11.05;4.72;;;11.30;99.90;;;;;;5012876;28;20045;-76
2023/06/01 04:51:24;;;;;;;10.70;4.78;;;11.30;99.90;;;;;;5013327;28;20041;-76
2023/06/01 04:53:51;;;;;;;9.88;5.20;;;11.30;99.90;;;;;;4996763;28;20548;-76
2023/06/01 04:56:18;;;;;;;12.30;4.90;;;11.20;99.90;;;;;;5012955;28;20042;-75
2023/06/01 04:58:50;;;;;;;10.70;4.70;;;11.30;99.90;;;;;;5012838;28;20077;-76
2023/06/01 05:01:16;;;;;;;11.10;4.57;;;11.30;99.90;;;;;;4997119;28;20041;-76
2023/06/01 05:03:45;;;;;;;11.40;4.43;;;11.30;99.90;;;;;;5014002;28;20485;-75
2023/06/01 05:06:12;;;;;;;11.52;4.88;;;11.30;99.90;;;;;;4997111;28;20034;-75
2023/06/01 05:08:39;;;;;;;14.07;4.63;;;11.30;99.90;;;;;;5014327;28;20394;-75
2023/06/01 05:11:06;;;;;;;10.13;4.68;;;11.40;99.90;;;;;;5013027;28;20042;-75
2023/06/01 05:13:35;;;;;;;10.73;5.00;;;11.40;99.90;;;;;;5012602;28;20056;-75
2023/06/01 05:16:01;;;;;;;10.13;5.05;;;11.50;99.90;;;;;;5012622;28;20058;-75
2023/06/01 05:18:31;;;;;;;9.70;4.90;;;11.50;99.90;;;;;;5012809;28;20041;-75
2023/06/01 05:20:56;;;;;;;11.25;4.80;;;11.50;99.90;;;;;;5012547;28;20060;-75
2023/06/01 05:23:23;;;;;;;9.32;4.72;;;11.50;99.90;;;;;;4963643;28;20046;-76
2023/06/01 05:25:52;;;;;;;10.68;5.20;;;11.50;99.90;;;;;;5012520;28;20099;-75
2023/06/01 05:28:21;;;;;;;12.15;5.53;;;11.50;99.90;;;;;;4996224;28;20123;-75
2023/06/01 05:30:47;;;;;;;10.48;5.20;;;11.50;99.90;;;;;;5012327;28;20053;-75
2023/06/01 05:33:13;;;;;;;13.13;5.28;;;11.50;99.90;;;;;;4995979;28;20042;-75
2023/06/01 05:35:39;;;;;;;13.73;5.88;;;11.50;99.90;;;;;;4995977;28;20034;-76
2023/06/01 05:38:04;;;;;;;11.93;5.30;;;11.50;99.90;;;;;;5013804;28;20121;-75
2023/06/01 05:40:30;;;;;;;11.68;5.57;;;11.50;99.90;;;;;;5012251;28;20045;-75
2023/06/01 05:43:06;;;;;;;14.82;6.28;;;11.60;99.90;;;;;;4995971;28;20046;-75
2023/06/01 05:45:32;;;;;;;13.50;6.15;;;11.70;99.90;;;;;;4995625;28;20038;-76
2023/06/01 05:47:58;;;;;;;12.63;5.95;;;11.60;99.90;;;;;;4996122;28;20056;-75
2023/06/01 05:50:24;;;;;;;12.20;5.45;;;11.60;99.90;;;;;;5012060;28;20046;-75
2023/06/01 05:52:50;;;;;;;14.60;5.88;;;11.60;99.90;;;;;;5012003;28;20061;-75
2023/06/01 05:55:16;;;;;;;16.10;5.95;;;11.60;99.90;;;;;;5012438;28;20072;-75
2023/06/01 05:57:42;;;;;;;15.38;6.10;;;11.50;99.90;;;;;;5012072;28;20041;-76
2023/06/01 06:00:12;;;;;;;12.68;5.70;;;11.60;99.90;;;;;;5011183;28;20426;-76
2023/06/01 06:02:38;;;;;;;14.32;5.97;;;11.60;99.90;;;;;;5011917;28;20046;-75
2023/06/01 06:05:05;;;;;;;12.25;5.50;;;11.50;99.90;;;;;;5011934;28;20038;-75
2023/06/01 06:07:31;;;;;;;12.05;5.95;;;11.60;99.90;;;;;;5012020;28;20378;-75
2023/06/01 06:09:57;;;;;;;12.82;6.05;;;11.60;99.90;;;;;;4995504;28;20042;-75
2023/06/01 06:12:23;;;;;;;11.20;6.00;;;11.60;99.90;;;;;;5011866;28;20037;-75
2023/06/01 06:14:49;;;;;;;11.00;5.38;;;11.60;99.90;;;;;;5011985;28;20121;-75
2023/06/01 06:17:15;;;;;;;11.50;5.35;;;11.60;99.90;;;;;;5012133;28;20145;-75
2023/06/01 06:19:43;;;;;;;12.18;5.15;;;11.60;99.90;;;;;;4995432;28;20112;-75
2023/06/01 06:22:15;;;;;;;10.77;4.80;;;11.70;99.90;;;;;;4979293;28;20050;-75
2023/06/01 06:24:41;;;;;;;11.93;4.95;;;11.70;99.90;;;;;;5011721;28;20158;-75
2023/06/01 06:27:09;;;;;;;11.40;5.15;;;11.80;99.90;;;;;;5011769;28;20046;-75
2023/06/01 06:29:34;;;;;;;11.10;4.95;;;11.80;99.90;;;;;;5011691;28;20046;-75
2023/06/01 06:32:03;;;;;;;11.95;4.93;;;11.80;99.90;;;;;;5012992;28;20049;-76
2023/06/01 06:34:35;;;;;;;11.80;4.82;;;11.80;99.90;;;;;;4996137;28;20409;-75
2023/06/01 06:37:07;;;;;;;13.63;5.30;;;11.90;99.90;;;;;;5011938;28;20414;-75
2023/06/01 06:39:33;;;;;;;10.88;5.10;;;11.90;99.90;;;;;;4995213;28;20052;-75
2023/06/01 06:42:03;;;;;;;11.88;5.15;;;12.00;99.90;;;;;;5011599;28;20053;-75
2023/06/01 06:44:29;;;;;;;12.52;5.18;;;12.00;99.90;;;;;;5011606;28;20042;-75
2023/06/01 06:46:59;;;;;;;10.60;4.90;;;12.10;99.90;;;;;;5011525;28;20038;-75
2023/06/01 06:49:24;;;;;;;10.07;5.53;;;12.10;99.90;;;;;;4995462;28;20472;-75
2023/06/01 06:51:50;;;;;;;8.18;4.40;;;12.10;99.90;;;;;;5011541;28;20057;-75
2023/06/01 06:54:16;;;;;;;10.23;4.90;;;12.20;99.90;;;;;;5011656;28;20120;-75
2023/06/01 06:56:42;;;;;;;10.18;4.47;;;12.30;99.90;;;;;;5011460;28;20050;-75
2023/06/01 06:59:08;;;;;;;8.88;4.35;;;12.30;99.90;;;;;;4995362;28;20038;-75
2023/06/01 07:01:37;;;;;;;10.25;4.80;;;12.40;99.90;;;;;;5011507;28;20077;-75
2023/06/01 07:04:06;;;;;;;11.32;4.45;;;12.50;99.90;;;;;;4995463;28;20049;-75
2023/06/01 07:06:32;;;;;;;10.77;4.47;;;12.50;99.90;;;;;;5011399;28;20084;-75
2023/06/01 07:08:59;;;;;;;9.70;4.22;;;12.60;99.90;;;;;;5011382;28;20038;-75
2023/06/01 07:11:26;;;;;;;10.85;4.18;;;12.60;99.90;;;;;;4997525;28;20038;-75
2023/06/01 07:13:57;;;;;;;7.93;3.85;;;12.70;99.90;;;;;;5015040;28;20398;-76
2023/06/01 07:16:26;;;;;;;9.63;4.07;;;12.70;99.90;;;;;;5016026;28;20117;-75
2023/06/01 07:18:52;;;;;;;7.15;3.10;;;12.70;99.90;;;;;;5014757;28;20046;-75
2023/06/01 07:21:18;;;;;;;7.72;3.60;;;12.80;99.90;;;;;;4998400;28;20048;-76
2023/06/01 07:23:46;;;;;;;8.13;2.90;;;12.80;99.90;;;;;;4963153;28;20065;-76
2023/06/01 07:26:11;;;;;;;7.50;2.97;;;12.90;99.90;;;;;;5008648;28;20046;-76
2023/06/01 07:28:37;;;;;;;7.53;2.65;;;12.90;99.90;;;;;;5014629;28;20061;-76
2023/06/01 07:31:04;;;;;;;7.15;2.88;;;12.90;99.90;;;;;;4998238;28;20501;-75
2023/06/01 07:33:33;;;;;;;5.85;2.70;;;12.90;99.90;;;;;;5014723;28;20379;-76
2023/06/01 07:35:59;;;;;;;6.88;2.70;;;12.80;99.90;;;;;;5014775;28;20046;-75
2023/06/01 07:38:26;;;;;;;7.72;2.60;;;12.80;99.90;;;;;;5015568;28;20042;-75
2023/06/01 07:40:52;;;;;;;5.68;2.42;;;12.80;99.90;;;;;;5014581;28;20069;-75
2023/06/01 07:43:18;;;;;;;6.78;2.45;;;12.80;99.90;;;;;;5014515;28;20445;-75
2023/06/01 07:45:44;;;;;;;6.03;2.63;;;12.90;99.90;;;;;;5014545;28;20041;-76
2023/06/01 07:48:10;;;;;;;9.70;2.85;;;12.90;99.90;;;;;;4998215;28;20038;-75
2023/06/01 07:50:36;;;;;;;7.68;2.80;;;13.00;99.90;;;;;;5014223;28;20103;-75
2023/06/01 07:53:02;;;;;;;7.65;3.10;;;12.90;99.90;;;;;;5015446;28;20371;-75
2023/06/01 07:55:28;;;;;;;8.30;3.03;;;13.00;99.90;;;;;;5014382;28;20468;-75
2023/06/01 07:57:54;;;;;;;7.75;2.90;;;13.10;99.90;;;;;;5014371;28;20081;-75
2023/06/01 08:00:20;;;;;;;6.70;2.60;;;13.20;99.90;;;;;;5014173;28;20320;-75
2023/06/01 08:02:46;;;;;;;5.70;2.20;;;13.40;99.90;;;;;;4998035;28;20095;-75
2023/06/01 08:05:14;;;;;;;6.95;2.00;;;13.50;99.90;;;;;;4998018;28;20033;-76
2023/06/01 08:07:42;;;;;;;4.47;2.03;;;13.50;99.90;;;;;;4997791;28;20491;-75
2023/06/01 08:10:11;;;;;;;5.20;2.03;;;13.40;99.90;;;;;;5015274;28;20132;-75
2023/06/01 08:12:37;;;;;;;4.65;2.00;;;13.30;99.90;;;;;;5014082;28;20502;-75
2023/06/01 08:15:06;;;;;;;5.85;1.90;;;13.30;99.90;;;;;;5013940;28;20131;-76
2023/06/01 08:17:32;;;;;;;5.00;2.03;;;13.20;99.90;;;;;;5013881;28;20398;-76
2023/06/01 08:19:58;;;;;;;4.93;2.00;;;13.20;99.90;;;;;;4997561;28;20038;-76
2023/06/01 08:22:28;;;;;;;4.68;2.28;;;13.30;99.90;;;;;;4980235;28;20553;-76
2023/06/01 08:24:54;;;;;;;6.85;2.88;;;13.30;99.90;;;;;;5013555;28;20412;-76
2023/06/01 08:27:22;;;;;;;6.75;3.08;;;13.40;99.90;;;;;;4997213;28;20057;-76
2023/06/01 08:29:51;;;;;;;8.05;3.55;;;13.30;99.90;;;;;;4980925;28;20125;-76
2023/06/01 08:32:20;;;;;;;7.95;3.38;;;13.30;99.90;;;;;;5014353;28;20038;-76
2023/06/01 08:34:47;;;;;;;9.85;3.28;;;13.30;99.90;;;;;;4997428;28;20048;-76
2023/06/01 08:37:14;;;;;;;8.02;3.40;;;13.30;99.90;;;;;;5013614;28;20540;-76
2023/06/01 08:39:40;;;;;;;6.97;2.28;;;13.40;99.90;;;;;;5013506;28;20050;-76
2023/06/01 08:42:32;;;;;;;5.00;2.30;;;13.40;99.90;;;;;;5013426;28;20512;-75
2023/06/01 08:44:58;;;;;;;5.93;2.35;;;13.60;99.90;;;;;;5000242;28;20064;-75
2023/06/01 08:47:27;;;;;;;5.68;2.10;;;13.70;99.90;;;;;;4997059;28;20046;-75
2023/06/01 08:49:56;;;;;;;4.45;1.80;;;13.80;99.90;;;;;;5013363;28;20500;-75
2023/06/01 08:52:32;;;;;;;6.05;1.95;;;13.90;99.90;;;;;;4996644;28;20096;-76
2023/06/01 08:55:00;;;;;;;4.63;1.80;;;13.80;99.90;;;;;;4996673;28;20046;-75
2023/06/01 08:57:26;;;;;;;5.85;2.00;;;13.70;99.90;;;;;;5014459;28;20049;-76
2023/06/01 08:59:52;;;;;;;6.97;1.95;;;13.80;99.90;;;;;;5012887;28;20108;-75
2023/06/01 09:02:20;;;;;;;5.13;2.00;;;13.70;99.90;;;;;;5012964;28;20485;-76
2023/06/01 09:04:46;;;;;;;4.60;2.00;;;13.50;99.90;;;;;;4996498;28;20042;-75
2023/06/01 09:07:13;;;;;;;5.45;2.03;;;13.50;99.90;;;;;;4980277;28;20540;-75
2023/06/01 09:09:39;;;;;;;5.70;2.28;;;13.40;99.90;;;;;;5012814;28;20046;-75
2023/06/01 09:12:23;;;;;;;5.53;2.33;;;13.40;99.90;;;;;;5013036;28;20477;-76
2023/06/01 09:14:50;;;;;;;5.70;2.58;;;13.30;99.90;;;;;;5013904;28;20042;-76
2023/06/01 09:17:24;;;;;;;10.60;3.10;;;13.20;99.90;;;;;;5012667;28;20081;-76
2023/06/01 09:19:56;;;;;;;6.25;2.60;;;13.20;99.90;;;;;;4996478;28;20045;-75
2023/06/01 09:22:22;;;;;;;6.05;2.50;;;13.20;99.90;;;;;;5012506;28;20461;-76
2023/06/01 09:24:59;;;;;;;8.07;2.88;;;13.20;99.90;;;;;;4996509;28;20082;-76
2023/06/01 09:27:27;;;;;;;6.63;2.90;;;13.30;99.90;;;;;;5012370;28;20046;-76
2023/06/01 09:29:57;;;;;;;5.88;2.50;;;13.40;99.90;;;;;;5012711;28;20045;-76
2023/06/01 09:32:24;;;;;;;5.45;2.10;;;13.50;99.90;;;;;;4996484;28;20050;-76
2023/06/01 09:34:49;;;;;;;58.90;6.35;;;13.60;99.90;;;;;;5011785;28;20052;-76
2023/06/01 09:37:16;;;;;;;17.58;3.40;;;13.60;99.90;;;;;;5013535;28;20037;-77
2023/06/01 09:39:43;;;;;;;12.45;3.20;;;13.50;99.90;;;;;;5012350;28;20045;-76
2023/06/01 09:42:09;;;;;;;7.15;2.55;;;13.50;99.90;;;;;;5013553;28;20042;-76
2023/06/01 09:44:37;;;;;;;8.85;2.63;;;13.60;99.90;;;;;;5013730;28;20069;-76
2023/06/01 09:47:05;;;;;;;7.30;2.47;;;13.80;99.90;;;;;;5012456;28;20046;-77
2023/06/01 09:49:37;;;;;;;5.03;1.95;;;14.00;99.90;;;;;;5012428;28;20045;-77
2023/06/01 09:52:03;;;;;;;5.78;1.90;;;14.00;99.90;;;;;;5012168;28;20073;-76
2023/06/01 09:54:31;;;;;;;4.78;1.90;;;14.10;99.90;;;;;;5012415;28;20077;-77
2023/06/01 09:56:58;;;;;;;5.43;1.80;;;14.10;99.90;;;;;;4995994;28;20048;-75
2023/06/01 09:59:25;;;;;;;4.43;1.80;;;14.30;99.90;;;;;;5012293;28;20394;-75
2023/06/01 10:01:57;;;;;;;4.70;1.70;;;14.40;99.90;;;;;;5012277;28;20498;-76
2023/06/01 10:04:24;;;;;;;;;;;14.30;99.90;;;;;;5012280;28;20089;-76
2023/06/01 10:06:51;;;;;;;6.47;2.20;;;14.10;99.90;;;;;;5013367;28;19983;-76
2023/06/01 10:09:19;;;;;;;5.00;2.10;;;14.00;99.90;;;;;;5013073;28;20061;-76
2023/06/01 10:11:52;;;;;;;6.93;2.45;;;14.00;99.90;;;;;;5012203;28;20046;-75
2023/06/01 10:14:22;;;;;;;7.10;2.67;;;14.00;99.90;;;;;;4996042;28;20084;-75
2023/06/01 10:16:56;;;;;;;9.15;3.40;;;14.00;99.90;;;;;;4995925;28;20077;-76
2023/06/01 10:19:22;;;;;;;9.10;3.30;;;14.00;99.90;;;;;;5013103;28;20045;-76
2023/06/01 10:21:51;;;;;;;8.80;3.17;;;13.90;99.90;;;;;;5011938;28;20040;-76
2023/06/01 10:24:20;;;;;;;6.70;3.22;;;13.70;99.90;;;;;;5011997;28;20041;-76
2023/06/01 10:27:01;;;;;;;7.95;3.10;;;13.60;99.90;;;;;;4995648;28;20041;-76
2023/06/01 10:29:29;;;;;;;7.10;3.30;;;13.50;99.90;;;;;;5012980;28;20042;-76
2023/06/01 10:31:55;;;;;;;9.65;3.30;;;13.50;99.90;;;;;;5012028;28;20038;-76
2023/06/01 10:34:38;;;;;;;10.20;3.92;;;13.50;99.90;;;;;;5011820;28;20045;-76
2023/06/01 10:37:04;;;;;;;12.57;5.05;;;13.50;99.90;;;;;;5011703;28;20107;-76
2023/06/01 10:39:32;;;;;;;12.45;4.57;;;13.40;99.90;;;;;;4995354;28;20045;-76
2023/06/01 10:42:13;;;;;;;12.90;4.43;;;13.40;99.90;;;;;;4995437;28;20042;-75
2023/06/01 10:44:41;;;;;;;11.90;4.75;;;13.40;99.90;;;;;;5011734;28;20046;-76
2023/06/01 10:47:10;;;;;;;13.73;4.80;;;13.30;99.90;;;;;;5015250;28;20069;-76
2023/06/01 10:50:06;;;;;;;13.10;4.55;;;13.30;99.90;;;;;;5016939;28;20474;-75
2023/06/01 10:52:38;;;;;;;11.70;4.20;;;13.20;99.90;;;;;;5015172;28;20053;-75
2023/06/01 10:55:07;;;;;;;10.85;4.75;;;13.40;99.90;;;;;;5015210;28;20054;-76
2023/06/01 10:57:39;;;;;;;11.30;4.93;;;13.50;99.90;;;;;;5015317;28;20042;-75
2023/06/01 11:00:14;;;;;;;11.05;4.75;;;13.40;99.90;;;;;;5015399;28;20100;-75
2023/06/01 11:02:55;;;;;;;11.55;4.53;;;13.50;99.90;;;;;;4998790;28;20196;-75
2023/06/01 11:05:50;;;;;;;10.52;4.57;;;13.70;99.90;;;;;;5014900;28;20056;-75
2023/06/01 11:08:28;;;;;;;11.50;4.47;;;13.80;99.90;;;;;;5015267;28;20046;-75
2023/06/01 11:11:03;;;;;;;11.48;4.40;;;13.90;99.90;;;;;;5015244;28;20046;-75
2023/06/01 11:13:30;;;;;;;10.20;4.10;;;14.00;99.90;;;;;;4999143;28;20038;-75
2023/06/01 11:16:07;;;;;;;13.38;4.20;;;14.10;99.90;;;;;;5016086;28;20430;-75
2023/06/01 11:18:49;;;;;;;12.15;3.80;;;14.10;99.90;;;;;;5016037;28;20080;-76
2023/06/01 11:21:21;;;;;;;12.48;4.60;;;14.20;99.90;;;;;;5015096;28;20053;-75
2023/06/01 11:23:48;;;;;;;13.10;3.88;;;14.20;99.90;;;;;;5014588;28;20049;-75
2023/06/01 11:26:15;;;;;;;10.38;4.07;;;14.40;99.90;;;;;;5014946;28;20057;-76
2023/06/01 11:28:42;;;;;;;22.27;6.70;;;14.40;99.90;;;;;;4998567;28;20073;-75
2023/06/01 11:31:14;;;;;;;12.13;3.42;;;14.30;99.90;;;;;;5015797;28;20046;-76
2023/06/01 11:33:40;;;;;;;13.43;3.60;;;14.40;99.90;;;;;;5015926;28;20034;-76
2023/06/01 11:36:10;;;;;;;11.18;3.58;;;14.50;99.90;;;;;;5014396;28;20050;-76
2023/06/01 11:38:41;;;;;;;13.13;4.05;;;14.50;99.90;;;;;;4998144;28;20042;-76
2023/06/01 11:41:08;;;;;;;11.90;4.20;;;14.30;99.90;;;;;;5014807;28;20042;-76
2023/06/01 11:43:34;;;;;;;13.77;4.70;;;14.30;99.90;;;;;;5015814;28;20553;-76
2023/06/01 11:46:11;;;;;;;11.48;3.55;;;14.30;99.90;;;;;;5015539;28;20124;-76
2023/06/01 11:48:37;;;;;;;14.25;4.28;;;14.40;99.90;;;;;;5014635;28;20041;-76
2023/06/01 11:51:04;;;;;;;11.93;3.95;;;14.40;99.90;;;;;;5014224;28;20559;-76
2023/06/01 11:53:34;;;;;;;13.32;4.15;;;14.50;99.90;;;;;;5014100;28;20069;-76
2023/06/01 11:55:59;;;;;;;11.38;3.92;;;14.50;99.90;;;;;;5014322;28;20061;-76
2023/06/01 11:58:27;;;;;;;13.93;4.30;;;14.60;99.90;;;;;;5013124;28;20067;-76
2023/06/01 12:00:54;;;;;;;11.98;3.70;;;14.60;99.90;;;;;;4997969;28;20100;-76
2023/06/01 12:03:20;;;;;;;9.38;3.38;;;14.50;99.90;;;;;;5013959;28;20044;-76
2023/06/01 12:05:49;;;;;;;9.02;3.30;;;14.70;99.90;;;;;;5013944;28;20390;-76
2023/06/01 12:08:18;;;;;;;9.23;3.55;;;14.80;99.90;;;;;;5013810;28;20057;-77
2023/06/01 12:10:50;;;;;;;10.07;3.33;;;14.80;99.90;;;;;;4997793;28;20045;-76
2023/06/01 12:13:17;;;;;;;11.02;3.28;;;14.90;99.90;;;;;;5013910;28;20037;-77
2023/06/01 12:15:44;;;;;;;11.05;3.50;;;15.00;99.90;;;;;;5013686;28;20057;-75
2023/06/01 12:18:10;;;;;;;11.88;3.40;;;15.10;99.90;;;;;;5014007;28;20073;-75
2023/06/01 12:20:39;;;;;;;9.75;3.58;;;15.10;99.90;;;;;;5013727;28;20049;-76
2023/06/01 12:23:14;;;;;;;11.55;3.72;;;15.10;99.90;;;;;;4997080;28;20413;-76
2023/06/01 12:25:57;;;;;;;14.88;4.30;;;15.20;99.90;;;;;;5015120;28;20053;-76
2023/06/01 12:28:25;;;;;;;9.82;4.05;;;15.20;99.90;;;;;;5013575;28;20044;-76
2023/06/01 12:31:12;;;;;;;10.25;3.50;;;15.20;99.90;;;;;;5015005;28;20100;-76
2023/06/01 12:33:39;;;;;;;9.23;3.50;;;15.20;99.90;;;;;;5013379;28;20049;-76
2023/06/01 12:36:07;;;;;;;12.32;3.67;;;15.30;99.90;;;;;;5013488;28;20037;-76
2023/06/01 12:38:52;;;;;;;10.20;3.60;;;15.30;99.90;;;;;;5013598;28;20363;-76
2023/06/01 12:41:18;;;;;;;10.48;3.35;;;15.30;99.90;;;;;;5014837;28;20038;-76
2023/06/01 12:43:49;;;;;;;7.20;3.13;;;15.40;99.90;;;;;;5013424;28;20077;-76
2023/06/01 12:46:19;;;;;;;11.88;3.90;;;15.50;99.90;;;;;;5014373;28;20037;-76
2023/06/01 12:48:46;;;;;;;12.35;4.05;;;15.40;99.90;;;;;;5013214;28;20042;-76